Time;durP1;ratioP1;P1;durP2;ratioP2;P2;SDS_P1;SDS_P2;PMS_P1;PMS_P2;Temp;Humidity;BMP_temperature;BMP_pressure;BME280_temperature;BME280_humidity;BME280_pressure;Samples;Min_cycle;Max_cycle;Signal;HPM_P1;HPM_P2
2022/04/15 00:00:14;;;;;;;11.27;6.75;;;;;;;14.95;54.19;102400.44;5140778;27;20051;-68
2022/04/15 00:02:42;;;;;;;11.15;7.10;;;;;;;14.93;54.21;102399.81;5141271;27;20035;-68
2022/04/15 00:07:53;;;;;;;12.02;7.20;;;;;;;14.90;54.19;102403.78;5138297;27;20087;-68
2022/04/15 00:10:22;;;;;;;11.27;6.85;;;;;;;14.85;54.61;102395.47;5143634;27;20047;-68
2022/04/15 00:12:50;;;;;;;14.65;7.07;;;;;;;14.86;54.53;102405.25;5134196;27;20080;-68
2022/04/15 00:15:18;;;;;;;10.48;6.60;;;;;;;14.84;54.55;102398.38;5142129;27;20158;-68
2022/04/15 00:17:46;;;;;;;11.77;7.50;;;;;;;14.83;54.08;102394.84;5124748;27;20114;-67
2022/04/15 00:20:14;;;;;;;15.27;6.85;;;;;;;14.80;54.34;102392.56;5146470;27;20130;-67
2022/04/15 00:22:42;;;;;;;9.48;6.55;;;;;;;14.78;54.39;102391.94;5137292;27;20047;-67
2022/04/15 00:25:11;;;;;;;13.30;6.82;;;;;;;14.76;54.22;102396.72;5134078;27;20095;-68
2022/04/15 00:27:40;;;;;;;9.60;6.68;;;;;;;14.75;54.24;102394.22;5142944;27;20054;-68
2022/04/15 00:30:10;;;;;;;10.05;6.30;;;;;;;14.72;54.58;102400.06;5144155;27;20119;-68
2022/04/15 00:32:39;;;;;;;13.82;7.50;;;;;;;14.60;54.21;102384.47;5141418;27;20048;-68
2022/04/15 00:35:09;;;;;;;11.98;7.25;;;;;;;14.68;54.29;102402.38;5141033;27;20139;-68
2022/04/15 00:37:37;;;;;;;11.75;6.85;;;;;;;14.67;54.13;102403.41;5142541;27;20472;-68
2022/04/15 00:40:08;;;;;;;11.63;7.35;;;;;;;14.54;54.51;102390.72;5139972;27;20062;-68
2022/04/15 00:42:38;;;;;;;11.38;7.50;;;;;;;14.62;54.32;102414.84;5140624;27;20047;-68
2022/04/15 00:45:09;;;;;;;10.48;6.55;;;;;;;14.61;54.69;102415.91;5141878;27;20096;-68
2022/04/15 00:47:48;;;;;;;15.63;7.18;;;;;;;14.59;54.19;102409.88;5139308;27;20051;-68
2022/04/15 00:50:16;;;;;;;11.35;6.75;;;;;;;14.54;54.61;102411.53;5138224;27;20051;-68
2022/04/15 00:52:46;;;;;;;10.07;6.75;;;;;;;14.56;54.58;102420.28;5133611;27;20047;-68
2022/04/15 00:55:16;;;;;;;12.98;7.43;;;;;;;14.53;54.45;102415.28;5147614;27;20111;-67
2022/04/15 00:57:49;;;;;;;11.68;7.50;;;;;;;14.51;54.25;102423.63;5144258;27;20066;-67
2022/04/15 01:00:18;;;;;;;13.13;6.90;;;;;;;14.50;54.69;102423.81;5133080;27;20047;-67
2022/04/15 01:02:47;;;;;;;9.35;7.13;;;;;;;14.47;54.68;102422.38;5142130;27;20042;-66
2022/04/15 01:05:15;;;;;;;13.18;7.20;;;;;;;14.46;54.60;102417.16;5135541;27;20047;-67
2022/04/15 01:07:47;;;;;;;10.38;7.32;;;;;;;14.45;54.69;102423.63;5138765;27;20078;-66
2022/04/15 01:10:15;;;;;;;14.20;7.63;;;;;;;14.43;54.65;102417.59;5140769;27;20051;-67
2022/04/15 01:12:46;;;;;;;11.82;7.28;;;;;;;14.43;54.58;102421.13;5139118;27;20046;-67
2022/04/15 01:15:35;;;;;;;12.02;7.03;;;;;;;14.34;54.69;102414.22;5136273;27;20045;-67
2022/04/15 01:18:02;;;;;;;10.98;7.90;;;;;;;14.40;54.98;102423.38;5130965;27;20100;-67
2022/04/15 01:20:31;;;;;;;14.15;8.38;;;;;;;14.39;54.80;102429.81;5143453;27;20357;-67
2022/04/15 01:23:05;;;;;;;11.63;7.25;;;;;;;14.38;54.93;102430.88;5138390;27;20050;-67
2022/04/15 01:25:34;;;;;;;11.82;7.72;;;;;;;14.34;54.84;102425.03;5141246;27;20062;-67
2022/04/15 01:28:02;;;;;;;13.48;7.72;;;;;;;14.31;54.84;102425.47;5143113;27;20051;-67
2022/04/15 01:30:29;;;;;;;11.23;7.63;;;;;;;14.31;54.68;102439.81;5134851;27;20065;-67
2022/04/15 01:32:57;;;;;;;11.80;7.80;;;;;;;14.30;55.14;102435.44;5140530;27;20070;-67
2022/04/15 01:35:31;;;;;;;10.82;7.10;;;;;;;14.30;55.02;102446.25;5136399;27;20090;-67
2022/04/15 01:38:02;;;;;;;13.52;7.93;;;;;;;14.28;54.70;102440.22;5142799;27;20051;-67
2022/04/15 01:40:30;;;;;;;12.90;8.07;;;;;;;14.27;54.92;102440.44;5141823;27;20086;-67
2022/04/15 01:42:58;;;;;;;12.77;8.45;;;;;;;14.25;54.68;102440.66;5133110;27;20043;-66
2022/04/15 01:45:26;;;;;;;13.13;7.47;;;;;;;14.23;54.94;102444.59;5132987;27;20054;-67
2022/04/15 01:47:54;;;;;;;12.82;7.82;;;;;;;14.20;54.85;102439.59;5150570;27;20078;-67
2022/04/15 01:50:23;;;;;;;11.25;7.35;;;;;;;14.15;55.10;102440.22;5144768;27;20047;-68
2022/04/15 01:52:51;;;;;;;17.52;8.68;;;;;;;14.16;55.29;102443.75;5142910;27;20059;-68
2022/04/15 01:55:20;;;;;;;13.32;8.35;;;;;;;14.14;55.34;102446.66;5154551;27;20047;-68
2022/04/15 01:57:48;;;;;;;13.30;9.05;;;;;;;14.10;55.19;102436.47;5146923;27;20043;-68
2022/04/15 02:00:16;;;;;;;15.93;9.38;;;;;;;14.08;55.16;102441.25;5144779;27;20105;-67
2022/04/15 02:02:44;;;;;;;13.45;8.70;;;;;;;14.06;54.88;102446.03;5145096;27;20054;-68
2022/04/15 02:05:11;;;;;;;15.40;8.70;;;;;;;14.07;55.13;102453.09;5146212;27;20487;-67
2022/04/15 02:07:39;;;;;;;11.40;7.63;;;;;;;14.05;55.29;102452.47;5144680;27;20082;-68
2022/04/15 02:10:09;;;;;;;14.52;8.57;;;;;;;14.00;55.25;102444.97;5142665;27;20553;-68
2022/04/15 02:12:39;;;;;;;14.82;8.70;;;;;;;13.91;55.46;102432.69;5146104;27;20062;-68
2022/04/15 02:15:08;;;;;;;13.88;8.20;;;;;;;13.95;55.68;102448.31;5139149;27;20488;-68
2022/04/15 02:17:36;;;;;;;15.10;9.05;;;;;;;13.97;55.22;102448.09;5143429;27;20070;-68
2022/04/15 02:20:04;;;;;;;12.82;8.50;;;;;;;13.97;55.43;102465.16;5144254;27;20077;-68
2022/04/15 02:22:32;;;;;;;12.27;8.18;;;;;;;13.95;55.58;102469.09;5133260;27;20059;-68
2022/04/15 02:25:00;;;;;;;13.60;8.23;;;;;;;13.94;55.48;102470.13;5136391;27;20070;-68
2022/04/15 02:27:28;;;;;;;14.00;9.32;;;;;;;13.92;55.63;102461.41;5144087;27;20500;-68
2022/04/15 02:29:57;;;;;;;15.05;8.60;;;;;;;13.90;55.81;102469.69;5140229;27;20090;-68
2022/04/15 02:32:26;;;;;;;15.85;9.25;;;;;;;13.89;55.57;102478.03;5151332;27;20102;-68
2022/04/15 02:34:53;;;;;;;14.52;8.80;;;;;;;13.85;55.62;102472.22;5140474;27;20460;-67
2022/04/15 02:37:21;;;;;;;18.27;9.02;;;;;;;13.75;56.06;102450.16;5130676;27;20059;-68
2022/04/15 02:39:50;;;;;;;15.13;9.55;;;;;;;13.85;56.08;102468.69;5140410;27;20047;-68
2022/04/15 02:42:18;;;;;;;16.05;9.55;;;;;;;13.85;55.74;102477.63;5143134;27;20099;-68
2022/04/15 02:44:45;;;;;;;16.25;9.68;;;;;;;13.80;55.72;102472.00;5137078;27;20067;-67
2022/04/15 02:47:14;;;;;;;15.88;10.32;;;;;;;13.81;55.72;102476.38;5137052;27;20086;-68
2022/04/15 02:49:42;;;;;;;17.27;10.55;;;;;;;13.81;55.65;102479.06;5137356;27;20065;-68
2022/04/15 02:52:10;;;;;;;17.63;10.20;;;;;;;13.79;56.08;102478.44;5142157;27;20075;-68
2022/04/15 02:54:38;;;;;;;16.58;9.90;;;;;;;13.79;56.16;102478.44;5141191;27;20515;-68
2022/04/15 02:57:05;;;;;;;16.13;9.05;;;;;;;13.76;56.01;102475.31;5140208;27;20168;-68
2022/04/15 02:59:33;;;;;;;20.95;10.25;;;;;;;13.75;56.28;102481.75;5136892;27;20070;-68
2022/04/15 03:02:01;;;;;;;14.15;10.13;;;;;;;13.75;55.79;102481.75;5140495;27;20059;-68
2022/04/15 03:04:30;;;;;;;16.52;9.43;;;;;;;13.73;55.81;102476.53;5139597;27;20130;-67
2022/04/15 03:06:58;;;;;;;14.35;9.98;;;;;;;13.71;56.36;102475.91;5148019;27;20046;-68
2022/04/15 03:09:26;;;;;;;18.42;10.27;;;;;;;13.71;56.07;102472.38;5130311;27;20047;-68
2022/04/15 03:11:53;;;;;;;15.15;9.48;;;;;;;13.70;56.37;102479.66;5141154;27;20043;-68
2022/04/15 03:14:21;;;;;;;15.00;9.88;;;;;;;13.67;56.14;102471.94;5143351;27;20056;-68
2022/04/15 03:16:49;;;;;;;15.98;10.43;;;;;;;13.64;56.14;102473.19;5146311;27;20090;-68
2022/04/15 03:19:17;;;;;;;17.27;11.32;;;;;;;13.64;56.02;102467.78;5135720;27;20043;-67
2022/04/15 03:21:46;;;;;;;14.57;9.95;;;;;;;13.62;56.56;102475.25;5147091;27;20428;-68
2022/04/15 03:24:13;;;;;;;16.70;9.52;;;;;;;13.61;56.45;102481.69;5136303;27;20054;-68
2022/04/15 03:26:41;;;;;;;15.30;10.07;;;;;;;13.59;56.13;102478.38;5147960;27;20071;-68
2022/04/15 03:29:09;;;;;;;14.70;10.55;;;;;;;13.58;56.61;102479.41;5144111;27;20070;-68
2022/04/15 03:31:37;;;;;;;14.27;9.52;;;;;;;13.56;56.11;102476.06;5144495;27;20146;-68
2022/04/15 03:34:04;;;;;;;16.65;10.48;;;;;;;13.52;56.79;102477.50;5146097;27;20114;-68
2022/04/15 03:36:32;;;;;;;14.45;9.48;;;;;;;13.53;56.33;102484.56;5142329;27;20075;-67
2022/04/15 03:39:01;;;;;;;18.23;11.27;;;;;;;13.52;56.42;102477.50;5143223;27;20485;-68
2022/04/15 03:41:29;;;;;;;16.27;10.27;;;;;;;13.40;56.56;102465.63;5144214;27;20047;-68
2022/04/15 03:43:57;;;;;;;18.55;11.77;;;;;;;13.49;56.77;102490.59;5140385;27;20073;-68
2022/04/15 03:46:25;;;;;;;16.15;11.32;;;;;;;13.46;56.67;102477.47;5129699;27;20082;-67
2022/04/15 03:48:52;;;;;;;14.65;9.32;;;;;;;13.45;56.67;102487.44;5136570;27;20051;-68
2022/04/15 03:51:20;;;;;;;19.25;10.93;;;;;;;13.38;56.63;102474.94;5137768;27;20074;-68
2022/04/15 03:53:48;;;;;;;14.98;10.95;;;;;;;13.42;56.93;102487.00;5131562;27;20048;-68
2022/04/15 03:56:17;;;;;;;18.55;11.32;;;;;;;13.40;57.07;102484.50;5145216;27;20104;-68
2022/04/15 03:58:44;;;;;;;16.17;10.73;;;;;;;13.38;56.85;102493.84;5143612;27;20074;-67
2022/04/15 04:01:12;;;;;;;20.45;11.43;;;;;;;13.35;56.72;102492.38;5139018;27;20054;-67
2022/04/15 04:03:40;;;;;;;16.05;11.30;;;;;;;13.34;56.99;102494.25;5144518;27;20095;-67
2022/04/15 04:06:08;;;;;;;20.85;11.30;;;;;;;13.34;56.80;102496.13;5143969;27;20052;-68
2022/04/15 04:08:35;;;;;;;19.67;12.18;;;;;;;13.33;57.08;102494.44;5141026;27;20078;-66
2022/04/15 04:11:03;;;;;;;15.65;11.10;;;;;;;13.30;57.56;102490.28;5140388;27;20460;-66
2022/04/15 04:13:32;;;;;;;16.90;11.32;;;;;;;13.31;57.16;102497.34;5146244;27;20054;-67
2022/04/15 04:16:00;;;;;;;18.17;11.73;;;;;;;13.29;57.54;102501.28;5144785;27;20051;-66
2022/04/15 04:18:28;;;;;;;17.00;11.60;;;;;;;13.30;57.55;102500.25;5141731;27;20053;-68
2022/04/15 04:20:55;;;;;;;23.23;12.77;;;;;;;13.28;57.45;102503.16;5134316;27;20078;-68
2022/04/15 04:23:24;;;;;;;18.80;12.15;;;;;;;13.27;57.12;102500.66;5139694;27;20051;-67
2022/04/15 04:25:55;;;;;;;16.55;11.15;;;;;;;13.25;57.46;102497.31;5142798;27;20047;-67
2022/04/15 04:28:22;;;;;;;16.88;11.57;;;;;;;13.24;57.46;102501.88;5139415;27;20114;-66
2022/04/15 04:30:52;;;;;;;18.88;12.77;;;;;;;13.23;57.16;102507.47;5142640;27;20079;-67
2022/04/15 04:33:20;;;;;;;19.30;12.85;;;;;;;13.22;57.24;102508.50;5145641;27;20055;-66
2022/04/15 04:35:48;;;;;;;19.67;13.20;;;;;;;13.21;57.16;102512.25;5145515;27;20081;-66
2022/04/15 04:38:16;;;;;;;19.45;13.38;;;;;;;13.18;57.38;102516.16;5152427;27;20047;-67
2022/04/15 04:40:44;;;;;;;25.35;14.13;;;;;;;13.16;57.63;102525.47;5144880;27;20577;-67
2022/04/15 04:43:12;;;;;;;19.10;12.20;;;;;;;13.15;57.79;102524.63;5149215;27;20460;-67
2022/04/15 04:45:40;;;;;;;19.20;13.30;;;;;;;13.11;58.20;102531.47;5152779;27;20136;-67
2022/04/15 04:48:09;;;;;;;21.80;14.07;;;;;;;13.08;58.06;102528.31;5140607;27;20081;-67
2022/04/15 04:50:37;;;;;;;21.40;14.07;;;;;;;13.07;57.83;102530.19;5141069;28;20051;-67
2022/04/15 04:53:05;;;;;;;22.35;13.40;;;;;;;13.06;58.10;102538.47;5146982;27;20097;-67
2022/04/15 04:55:33;;;;;;;23.15;13.45;;;;;;;13.02;58.22;102544.28;5145104;27;20106;-67
2022/04/15 04:58:01;;;;;;;21.48;13.65;;;;;;;12.90;57.90;102523.41;5150581;27;20078;-67
2022/04/15 05:00:29;;;;;;;20.98;13.50;;;;;;;12.99;58.08;102546.53;5149487;27;20085;-67
2022/04/15 05:02:56;;;;;;;22.85;12.82;;;;;;;12.98;58.57;102551.09;5149056;27;20070;-67
2022/04/15 05:05:25;;;;;;;17.90;12.50;;;;;;;12.98;58.27;102558.34;5149451;27;20078;-67
2022/04/15 05:07:53;;;;;;;17.48;13.05;;;;;;;12.99;58.38;102562.72;5139012;27;20051;-67
2022/04/15 05:10:23;;;;;;;17.08;12.02;;;;;;;12.93;58.36;102555.41;5147684;27;20054;-66
2022/04/15 05:12:51;;;;;;;18.40;11.90;;;;;;;12.95;58.24;102564.16;5140382;27;20162;-68
2022/04/15 05:15:19;;;;;;;19.13;12.52;;;;;;;12.92;58.66;102570.75;5152232;27;20094;-69
2022/04/15 05:17:47;;;;;;;17.25;12.27;;;;;;;12.89;58.72;102568.47;5157920;27;20480;-69
2022/04/15 05:20:14;;;;;;;18.67;11.55;;;;;;;12.88;58.62;102582.16;5147534;27;20058;-69
2022/04/15 05:22:45;;;;;;;19.13;10.65;;;;;;;12.87;58.78;102580.47;4851846;27;10000568;-65
2022/04/15 05:25:13;;;;;;;14.48;11.07;;;;;;;12.85;58.76;102577.97;5140549;27;20326;-68
2022/04/15 05:27:41;;;;;;;14.70;11.15;;;;;;;12.83;58.69;102587.28;5133656;27;20078;-67
2022/04/15 05:30:09;;;;;;;14.63;11.07;;;;;;;12.77;59.25;102580.81;5143615;27;20082;-68
2022/04/15 05:32:37;;;;;;;13.95;10.45;;;;;;;12.78;58.91;102597.81;5143917;27;20079;-66
2022/04/15 05:35:05;;;;;;;15.48;10.77;;;;;;;12.78;59.14;102592.44;5142203;27;20080;-63
2022/04/15 05:37:33;;;;;;;15.07;10.25;;;;;;;12.78;59.03;102614.03;5145830;27;20061;-68
2022/04/15 05:40:02;;;;;;;14.05;10.18;;;;;;;12.77;59.00;102615.88;5143382;27;20094;-65
2022/04/15 05:42:30;;;;;;;16.50;10.57;;;;;;;12.76;59.26;102611.50;5143661;27;20085;-71
2022/04/15 05:44:58;;;;;;;14.45;10.70;;;;;;;12.74;59.16;102618.97;5143902;27;20098;-66
2022/04/15 05:47:25;;;;;;;13.50;9.88;;;;;;;12.74;59.02;102628.91;5146389;27;20082;-67
2022/04/15 05:49:53;;;;;;;14.85;10.13;;;;;;;12.73;59.34;102629.94;5144128;27;20073;-67
2022/04/15 05:52:26;;;;;;;14.43;9.57;;;;;;;12.68;59.36;102628.66;5146976;27;20054;-68
2022/04/15 05:54:54;;;;;;;12.20;9.93;;;;;;;12.69;59.06;102634.91;5143328;27;20071;-67
2022/04/15 05:57:23;;;;;;;11.32;8.65;;;;;;;12.67;58.95;102635.09;5140996;27;20066;-64
2022/04/15 05:59:50;;;;;;;11.07;8.18;;;;;;;12.68;58.99;102639.44;5147533;27;20086;-65
2022/04/15 06:02:18;;;;;;;11.02;8.63;;;;;;;12.68;59.13;102647.53;5140519;27;20047;-65
2022/04/15 06:04:46;;;;;;;11.95;8.70;;;;;;;12.68;58.87;102650.25;5158716;27;20054;-68
2022/04/15 06:07:14;;;;;;;10.98;8.52;;;;;;;12.68;59.01;102647.53;5133537;27;20083;-68
2022/04/15 06:09:41;;;;;;;10.57;8.40;;;;;;;12.69;59.01;102651.91;5145794;27;20047;-68
2022/04/15 06:12:11;;;;;;;10.20;8.35;;;;;;;12.69;58.78;102649.22;5137916;27;20060;-68
2022/04/15 06:14:40;;;;;;;12.13;8.30;;;;;;;12.64;59.08;102653.50;5147098;27;20077;-68
2022/04/15 06:17:08;;;;;;;11.32;8.50;;;;;;;12.67;59.15;102666.63;5146605;27;20058;-68
2022/04/15 06:19:35;;;;;;;11.05;7.55;;;;;;;12.63;58.95;102662.63;5142136;27;20051;-68
2022/04/15 06:22:10;;;;;;;9.45;7.10;;;;;;;12.63;59.18;102665.34;5146005;27;20099;-68
2022/04/15 06:24:37;;;;;;;9.52;7.68;;;;;;;12.63;59.09;102676.97;5150522;27;20051;-68
2022/04/15 06:27:05;;;;;;;10.48;7.50;;;;;;;12.62;58.84;102669.88;5140714;27;20164;-68
2022/04/15 06:29:33;;;;;;;9.10;6.40;;;;;;;12.51;58.97;102647.97;5142094;27;20047;-68
2022/04/15 06:32:02;;;;;;;8.68;6.85;;;;;;;12.64;58.83;102680.50;5146484;27;20073;-68
2022/04/15 06:34:30;;;;;;;11.73;8.02;;;;;;;12.62;58.80;102679.84;5136422;27;20043;-68
2022/04/15 06:36:57;;;;;;;10.35;7.57;;;;;;;12.58;59.01;102689.34;5133890;27;20075;-68
2022/04/15 06:39:25;;;;;;;8.30;6.60;;;;;;;12.56;58.99;102694.94;5142324;27;20103;-68
2022/04/15 06:41:53;;;;;;;10.00;7.75;;;;;;;12.52;59.38;102687.41;5146192;27;20051;-68
2022/04/15 06:44:21;;;;;;;9.27;6.68;;;;;;;12.51;58.98;102691.97;5140342;27;20071;-68
2022/04/15 06:46:48;;;;;;;8.20;6.43;;;;;;;12.50;59.02;102697.53;5137294;27;20526;-68
2022/04/15 06:49:17;;;;;;;9.25;7.30;;;;;;;12.48;59.55;102699.59;5146260;27;20075;-68
2022/04/15 06:51:45;;;;;;;9.75;7.20;;;;;;;12.46;59.61;102698.94;5146522;27;20069;-69
2022/04/15 06:54:13;;;;;;;8.68;6.50;;;;;;;12.35;59.82;102684.09;5138448;27;20812;-67
2022/04/15 06:56:40;;;;;;;8.93;6.35;;;;;;;12.45;59.62;102697.28;5154261;27;20047;-69
2022/04/15 06:59:08;;;;;;;8.43;6.30;;;;;;;12.45;59.82;102708.91;5140186;27;20550;-69
2022/04/15 07:01:37;;;;;;;8.68;6.03;;;;;;;12.45;59.26;102697.28;5146069;27;20074;-69
2022/04/15 07:04:06;;;;;;;8.82;6.68;;;;;;;12.47;59.63;102704.16;5145016;27;20075;-69
2022/04/15 07:06:35;;;;;;;9.65;7.05;;;;;;;12.48;59.49;102702.28;5153172;27;20047;-69
2022/04/15 07:09:02;;;;;;;10.35;7.53;;;;;;;12.47;59.68;102698.75;5137669;27;20059;-69
2022/04/15 07:11:30;;;;;;;12.43;7.15;;;;;;;12.48;59.80;102713.91;5145723;27;20050;-69
2022/04/15 07:13:58;;;;;;;8.63;6.07;;;;;;;12.47;59.50;102708.72;5145520;27;20054;-69
2022/04/15 07:16:26;;;;;;;8.75;6.70;;;;;;;12.48;59.59;102708.53;5134525;27;20051;-67
2022/04/15 07:18:56;;;;;;;8.80;6.68;;;;;;;12.49;59.62;102715.59;5145579;27;20070;-68
2022/04/15 07:21:24;;;;;;;8.95;6.55;;;;;;;12.47;59.47;102719.50;5145803;27;20062;-68
2022/04/15 07:23:53;;;;;;;8.95;7.07;;;;;;;12.49;59.79;102717.44;5137933;27;20081;-67
2022/04/15 07:26:21;;;;;;;8.95;6.82;;;;;;;12.46;60.00;102718.66;5141247;27;20119;-67
2022/04/15 07:28:49;;;;;;;8.70;6.22;;;;;;;12.48;59.61;102723.88;5145425;27;20058;-68
2022/04/15 07:31:17;;;;;;;9.05;6.53;;;;;;;12.48;59.50;102723.88;5145349;27;20078;-67
2022/04/15 07:33:46;;;;;;;9.00;6.25;;;;;;;12.49;59.35;102726.38;5140119;27;20106;-67
2022/04/15 07:38:57;;;;;;;8.13;6.57;;;;;;;12.51;59.51;102726.19;5134984;27;20050;-68
2022/04/15 07:41:25;;;;;;;9.25;6.53;;;;;;;12.50;59.62;102735.31;5141196;27;20074;-69
2022/04/15 07:43:53;;;;;;;8.25;5.80;;;;;;;12.48;59.67;102731.97;5144895;27;20066;-66
2022/04/15 07:46:20;;;;;;;10.85;7.28;;;;;;;12.47;59.58;102730.28;5144951;27;20043;-67
2022/04/15 07:48:48;;;;;;;8.88;6.47;;;;;;;12.49;59.52;102736.31;5148461;27;20483;-68
2022/04/15 07:51:16;;;;;;;9.70;6.68;;;;;;;12.48;59.63;102734.66;5143005;27;20074;-68
2022/04/15 07:53:44;;;;;;;9.00;6.20;;;;;;;12.48;59.66;102734.66;5145002;27;20066;-68
2022/04/15 07:56:13;;;;;;;11.82;7.40;;;;;;;12.48;59.70;102735.50;5144201;27;20050;-68
2022/04/15 07:58:40;;;;;;;9.13;6.78;;;;;;;12.47;60.10;102736.50;5143645;27;20051;-67
2022/04/15 08:01:10;;;;;;;10.88;7.03;;;;;;;12.45;60.18;102741.25;5134287;27;20047;-67
2022/04/15 08:03:37;;;;;;;10.82;7.00;;;;;;;12.43;60.39;102746.00;5144824;27;20539;-68
2022/04/15 08:06:05;;;;;;;10.20;7.68;;;;;;;12.39;60.68;102737.44;5140457;27;20043;-69
2022/04/15 08:08:33;;;;;;;10.25;6.95;;;;;;;12.41;60.32;102739.13;5143650;27;20046;-67
2022/04/15 08:11:01;;;;;;;8.82;6.43;;;;;;;12.35;60.12;102724.53;5135334;27;20048;-68
2022/04/15 08:13:30;;;;;;;13.82;7.90;;;;;;;12.40;60.65;102735.59;5140949;27;20051;-68
2022/04/15 08:15:58;;;;;;;10.50;6.55;;;;;;;12.40;60.48;102735.59;5135050;27;20047;-68
2022/04/15 08:18:26;;;;;;;8.60;6.15;;;;;;;12.38;60.40;102737.63;5143470;27;20076;-68
2022/04/15 08:20:56;;;;;;;11.40;6.10;;;;;;;12.42;60.13;102743.50;5148719;27;20075;-68
2022/04/15 08:23:24;;;;;;;8.35;6.65;;;;;;;12.42;60.01;102733.53;5135505;27;20063;-67
2022/04/15 08:25:52;;;;;;;12.27;5.82;;;;;;;12.44;60.01;102744.97;5143695;27;20078;-68
2022/04/15 08:28:22;;;;;;;9.32;6.07;;;;;;;12.45;59.65;102745.81;5144139;27;20123;-69
2022/04/15 08:30:51;;;;;;;10.25;6.28;;;;;;;12.45;59.70;102735.03;5144612;27;20071;-68
2022/04/15 08:33:20;;;;;;;9.15;5.60;;;;;;;12.41;59.67;102731.88;5141484;27;20047;-68
2022/04/15 08:35:48;;;;;;;10.10;6.18;;;;;;;12.45;59.76;102743.13;5133363;27;20079;-68
2022/04/15 08:38:16;;;;;;;8.68;5.90;;;;;;;12.45;59.72;102743.97;5142166;28;20050;-67
2022/04/15 08:40:47;;;;;;;9.15;5.90;;;;;;;12.45;59.74;102748.50;5143727;28;20066;-68
2022/04/15 08:43:14;;;;;;;9.55;6.20;;;;;;;12.42;59.39;102743.50;5140499;27;20134;-68
2022/04/15 08:45:43;;;;;;;10.40;6.22;;;;;;;12.42;59.65;102755.13;5148851;27;20051;-68
2022/04/15 08:48:12;;;;;;;9.27;6.05;;;;;;;12.44;59.31;102752.22;5136159;28;20075;-68
2022/04/15 08:50:40;;;;;;;8.10;5.97;;;;;;;12.43;59.37;102756.78;5145040;27;20051;-68
2022/04/15 08:53:09;;;;;;;8.95;5.20;;;;;;;12.43;59.43;102756.78;5147683;27;20082;-68
2022/04/15 08:55:37;;;;;;;7.35;4.50;;;;;;;12.44;59.42;102755.75;5160396;27;20046;-68
2022/04/15 08:58:05;;;;;;;6.68;4.65;;;;;;;12.36;59.52;102739.69;5139237;27;20082;-68
2022/04/15 09:00:33;;;;;;;9.10;5.57;;;;;;;12.47;59.35;102758.09;5135809;27;20061;-67
2022/04/15 09:03:03;;;;;;;7.70;4.72;;;;;;;12.35;59.29;102746.09;5148130;27;20107;-67
2022/04/15 09:05:32;;;;;;;9.23;5.50;;;;;;;12.47;59.30;102766.19;5146246;27;20071;-67
2022/04/15 09:08:05;;;;;;;9.35;5.68;;;;;;;12.47;59.34;102770.72;5136682;27;20071;-68
2022/04/15 09:10:35;;;;;;;10.02;5.78;;;;;;;12.46;59.08;102772.59;5134942;27;20063;-68
2022/04/15 09:13:04;;;;;;;8.75;5.63;;;;;;;12.48;59.09;102770.56;5137178;27;20047;-67
2022/04/15 09:15:36;;;;;;;7.57;5.20;;;;;;;12.40;59.19;102757.16;5151356;27;20118;-67
2022/04/15 09:18:04;;;;;;;11.73;5.10;;;;;;;12.51;59.11;102772.03;5147995;27;20047;-68
2022/04/15 09:20:34;;;;;;;7.00;4.70;;;;;;;12.40;58.92;102754.47;5141734;27;20050;-67
2022/04/15 09:23:09;;;;;;;6.10;5.10;;;;;;;12.54;58.79;102769.81;5147872;27;20051;-67
2022/04/15 09:25:38;;;;;;;8.25;5.18;;;;;;;12.50;58.71;102763.09;5146422;27;20075;-67
2022/04/15 09:28:06;;;;;;;8.05;4.75;;;;;;;12.55;58.77;102768.78;5147423;27;20077;-68
2022/04/15 09:30:40;;;;;;;7.30;4.72;;;;;;;12.46;58.88;102750.19;5141912;27;20054;-68
2022/04/15 09:33:11;;;;;;;8.73;4.63;;;;;;;12.59;58.65;102771.94;5147365;27;20055;-67
2022/04/15 09:35:45;;;;;;;7.10;4.80;;;;;;;12.62;58.71;102776.94;5142929;27;20054;-67
2022/04/15 09:38:13;;;;;;;7.85;4.63;;;;;;;12.53;58.71;102756.50;5142480;27;20108;-67
2022/04/15 09:40:41;;;;;;;7.82;4.38;;;;;;;12.64;58.43;102783.84;5147094;27;20119;-67
2022/04/15 09:43:08;;;;;;;6.57;4.18;;;;;;;12.65;58.47;102777.41;5147591;27;20146;-67
2022/04/15 09:45:37;;;;;;;7.78;4.72;;;;;;;12.67;58.73;102782.63;5137729;27;20133;-67
2022/04/15 09:48:08;;;;;;;9.45;4.47;;;;;;;12.68;58.32;102787.00;5147154;27;20261;-68
2022/04/15 09:50:38;;;;;;;7.82;5.47;;;;;;;12.69;58.29;102780.56;5147306;27;20051;-67
2022/04/15 09:53:10;;;;;;;7.35;4.40;;;;;;;12.69;58.50;102781.41;5142103;27;20104;-67
2022/04/15 09:55:40;;;;;;;7.28;4.50;;;;;;;12.69;58.54;102780.56;5146674;27;20066;-66
2022/04/15 09:58:10;;;;;;;6.07;4.30;;;;;;;12.69;58.50;102776.00;5140326;27;20061;-66
2022/04/15 10:00:40;;;;;;;6.93;4.53;;;;;;;12.73;58.34;102776.47;5145830;27;20095;-68
2022/04/15 10:03:11;;;;;;;6.65;4.70;;;;;;;12.74;58.40;102770.06;5142122;27;20071;-68
2022/04/15 10:05:39;;;;;;;8.57;4.70;;;;;;;12.75;58.21;102785.22;5133861;27;20051;-68
2022/04/15 10:08:10;;;;;;;6.30;4.63;;;;;;;12.76;58.32;102783.34;5154800;27;20050;-68
2022/04/15 10:10:38;;;;;;;9.38;4.45;;;;;;;12.77;58.55;102776.94;5145626;27;20158;-68
2022/04/15 10:13:07;;;;;;;7.40;4.53;;;;;;;12.79;58.16;102773.00;5148467;27;20423;-66
2022/04/15 10:15:37;;;;;;;7.75;5.13;;;;;;;12.80;58.27;102776.56;5139981;27;20094;-67
2022/04/15 10:18:05;;;;;;;9.40;4.90;;;;;;;12.77;58.39;102771.53;5147092;27;20035;-67
2022/04/15 10:20:33;;;;;;;7.93;4.97;;;;;;;12.73;57.93;102759.44;5141512;27;20099;-67
2022/04/15 10:23:02;;;;;;;7.65;5.05;;;;;;;12.84;58.35;102778.69;5155394;27;20070;-67
2022/04/15 10:25:33;;;;;;;6.65;4.55;;;;;;;12.84;58.19;102773.28;5143642;27;20043;-68
2022/04/15 10:28:05;;;;;;;7.47;4.72;;;;;;;12.82;57.89;102764.53;5145041;27;20048;-67
2022/04/15 10:30:37;;;;;;;10.75;5.28;;;;;;;12.89;58.34;102772.72;5151419;27;20103;-68
2022/04/15 10:33:06;;;;;;;6.22;4.20;;;;;;;12.79;58.17;102753.28;5143669;27;20058;-68
2022/04/15 10:35:36;;;;;;;7.30;4.85;;;;;;;12.85;58.22;102756.06;5131135;27;20058;-68
2022/04/15 10:38:11;;;;;;;8.02;4.25;;;;;;;12.97;57.88;102764.50;5144788;27;20043;-68
2022/04/15 10:40:44;;;;;;;7.93;4.28;;;;;;;13.00;57.84;102758.72;5157039;27;20134;-68
2022/04/15 10:43:20;;;;;;;6.28;4.20;;;;;;;13.05;58.13;102767.09;5133520;27;20043;-68
2022/04/15 10:45:51;;;;;;;5.82;4.22;;;;;;;13.04;58.46;102760.84;5144916;27;20070;-68
2022/04/15 10:48:29;;;;;;;6.32;3.95;;;;;;;13.08;58.43;102753.22;5134964;27;20047;-68
2022/04/15 10:50:57;;;;;;;6.95;3.95;;;;;;;13.12;58.25;102754.50;5144737;27;20058;-68
2022/04/15 10:53:34;;;;;;;6.38;4.25;;;;;;;13.10;57.82;102747.63;5132798;27;20284;-67
2022/04/15 10:56:13;;;;;;;;;;;;;;;13.16;58.23;102753.13;5149089;27;20075;-67
2022/04/15 11:01:52;;;;;;;10.68;4.95;;;;;;;13.23;58.10;102753.19;5145729;27;20062;-67
2022/04/15 11:04:25;;;;;;;7.18;3.80;;;;;;;13.26;57.79;102750.94;5142377;27;20115;-68
2022/04/15 11:06:54;;;;;;;6.55;4.13;;;;;;;13.29;58.01;102765.91;5142490;27;20129;-67
2022/04/15 11:09:23;;;;;;;7.65;4.63;;;;;;;13.27;57.38;102752.59;5142741;27;20522;-67
2022/04/15 11:11:53;;;;;;;7.15;4.72;;;;;;;13.30;57.38;102743.28;5138871;27;20507;-68
2022/04/15 11:14:33;;;;;;;7.20;3.45;;;;;;;13.30;57.63;102743.28;5144201;27;20479;-68
2022/04/15 11:17:01;;;;;;;6.43;3.30;;;;;;;13.35;57.88;102740.84;5138021;27;20047;-68
2022/04/15 11:19:30;;;;;;;5.72;3.60;;;;;;;13.40;57.43;102743.78;5147315;27;20058;-68
2022/04/15 11:21:58;;;;;;;6.97;3.67;;;;;;;13.44;57.56;102749.63;5145707;27;20118;-68
2022/04/15 11:24:27;;;;;;;6.03;3.60;;;;;;;13.48;57.67;102745.53;5143081;27;20058;-69
2022/04/15 11:27:03;;;;;;;6.63;3.13;;;;;;;13.51;57.86;102743.25;5145638;27;20137;-68
2022/04/15 11:29:31;;;;;;;7.18;3.80;;;;;;;13.56;57.21;102745.38;5144981;27;20050;-68
2022/04/15 11:32:01;;;;;;;7.78;4.38;;;;;;;13.57;57.16;102742.47;5131057;27;20123;-68
2022/04/15 11:34:29;;;;;;;6.88;3.95;;;;;;;13.60;57.24;102742.09;5138032;27;20127;-68